Hasbrouck Heights, New Jersey
Current Conditions -  °F | °C
As of 9:09 PM on Wednesday 22 Oct 2014 (Local Time) from KTEB Reporting Station
Light Rain Light Rain  
Wind Chill: 52°   Ceiling: 1500
Heat Index: 52°   Visibility: 3mi
Dew Point: 46°   Wind: 15mph
Humidity: 82%   Direction: 350°N
Pressure: 29.77"   Gusts: 26mph
Location:  40.86°N, 74.08°W
Report Text: KTEB 230109Z 35013G23KT 3SM -RA BR BKN015 BKN028 OVC047 11/08 A2977 RMK AO2 P0002 $
Loading
Personal Weather Stations






























Interactive Weather Map
Tropical Storm Tracking
New forecast layout! Learn more

10-Day Weather Forecast

Advertisements
Track Severe Weather on mobile